首页
METAR-TAF:

METAR-TAF

机场 :

Chariton Municipal Airport

Chariton, 艾奥瓦州, 美国

纬度: 41-02N, 经度: 093-22W, 海拔: 320米

当前天气观测

该预报发布于13分钟前的17:55 UTC
风速10节,风向北转西北
温度 25°C
湿度 50%
气压 1024 hPa
能見度: 16.1公里
散云层高于5000英尺
散云层高于5500英尺

METAR: KCNC 231755Z AUTO 34010KT 10SM SCT050 SCT055 25/14 A3025 RMK AO2

时间: 13:08 (18:08 UTC)


TAF: 丢失

超过4000个机场的气象观测和天气预报(METAR&TAF报告)。

可查询的气象台以黄色和红色小点在地图上表示。

将鼠标移到小点上方,可查看气象台名称。

然后点击查看天气观测和预报。

如需切换地图:点击带黑十字的绿色按钮放大地图;点击带横线的绿色按钮缩小地图;或者点击绿色箭头查看邻近地区的地图。


METAR-TAF: